createdAt,value
2017-10-29T00:02:33.658Z,7.70
2017-10-29T00:05:44.146Z,7.70
2017-10-29T00:08:54.675Z,7.70
2017-10-29T00:12:05.187Z,7.70
2017-10-29T00:15:15.736Z,7.70
2017-10-29T00:18:26.551Z,7.80
2017-10-29T00:21:37.043Z,7.80
2017-10-29T00:24:47.187Z,7.80
2017-10-29T00:27:57.086Z,7.80
2017-10-29T00:31:07.279Z,7.80
2017-10-29T00:34:18.772Z,7.90
2017-10-29T00:37:28.707Z,7.90
2017-10-29T00:40:39.172Z,7.90
2017-10-29T00:43:49.443Z,7.90
2017-10-29T00:46:59.288Z,8.00
2017-10-29T00:50:09.346Z,8.00
2017-10-29T00:53:19.455Z,8.00
2017-10-29T00:56:29.589Z,8.10
2017-10-29T00:59:39.703Z,8.10
2017-10-29T01:02:49.542Z,8.10
2017-10-29T01:05:59.802Z,8.10
2017-10-29T01:09:11.208Z,8.20
2017-10-29T01:12:22.411Z,8.20
2017-10-29T01:15:32.755Z,8.20
2017-10-29T01:18:43.371Z,8.30
2017-10-29T01:21:53.590Z,8.20
2017-10-29T01:25:04.062Z,8.30
2017-10-29T01:28:13.938Z,8.40
2017-10-29T01:31:24.991Z,8.40
2017-10-29T01:34:35.446Z,8.40
2017-10-29T01:37:45.995Z,8.40
2017-10-29T01:40:56.359Z,8.50
2017-10-29T01:44:06.947Z,8.50
2017-10-29T01:47:17.319Z,8.50
2017-10-29T01:50:27.520Z,8.50
2017-10-29T01:53:37.840Z,8.50
2017-10-29T01:56:47.696Z,8.60
2017-10-29T01:59:58.136Z,8.60
2017-10-29T02:03:08.093Z,8.60
2017-10-29T02:06:18.050Z,8.60
2017-10-29T02:09:28.018Z,8.60
2017-10-29T02:12:37.987Z,8.60
2017-10-29T02:15:48.025Z,8.70
2017-10-29T02:18:57.891Z,8.70
2017-10-29T02:22:08.013Z,8.70
2017-10-29T02:25:17.999Z,8.80
2017-10-29T02:28:29.517Z,8.80
2017-10-29T02:31:40.506Z,8.80
2017-10-29T02:34:50.974Z,8.80
2017-10-29T02:38:01.285Z,8.80
2017-10-29T02:41:11.804Z,8.90
2017-10-29T02:44:22.426Z,8.90
2017-10-29T02:47:32.553Z,9.00
2017-10-29T02:50:43.121Z,9.00
2017-10-29T02:53:53.095Z,9.10
2017-10-29T02:57:03.640Z,9.10
2017-10-29T03:00:13.921Z,9.20
2017-10-29T03:03:24.294Z,9.20
2017-10-29T03:06:34.151Z,9.30
2017-10-29T03:09:44.010Z,9.30
2017-10-29T03:12:53.719Z,9.40
2017-10-29T03:16:03.463Z,9.40
2017-10-29T03:19:14.746Z,9.60
2017-10-29T03:22:24.833Z,9.50
2017-10-29T03:25:34.377Z,9.60
2017-10-29T03:28:44.851Z,9.60
2017-10-29T03:31:55.106Z,9.60
2017-10-29T03:35:04.702Z,9.70
2017-10-29T03:38:15.310Z,9.70
2017-10-29T03:41:25.679Z,9.70
2017-10-29T03:44:35.774Z,9.80
2017-10-29T03:47:46.943Z,9.80
2017-10-29T03:50:56.956Z,9.80
2017-10-29T03:54:07.538Z,9.80
2017-10-29T03:57:17.272Z,9.80
2017-10-29T04:00:27.585Z,9.80
2017-10-29T04:03:37.581Z,9.70
2017-10-29T04:06:47.652Z,9.70
2017-10-29T04:09:58.115Z,9.60
2017-10-29T04:13:09.489Z,9.60
2017-10-29T04:16:20.655Z,9.60
2017-10-29T04:19:30.938Z,9.60
2017-10-29T04:22:40.864Z,9.60
2017-10-29T04:25:50.917Z,9.60
2017-10-29T04:29:00.955Z,9.60
2017-10-29T04:32:10.975Z,9.60
2017-10-29T04:35:21.174Z,9.60
2017-10-29T04:38:32.093Z,9.70
2017-10-29T04:41:42.188Z,9.70
2017-10-29T04:44:52.221Z,9.70
2017-10-29T04:48:02.498Z,9.70
2017-10-29T04:51:12.882Z,9.70
2017-10-29T04:54:23.350Z,9.60
2017-10-29T04:57:33.303Z,9.70
2017-10-29T05:00:43.844Z,9.70
2017-10-29T05:03:54.403Z,9.90
2017-10-29T05:07:04.558Z,10.00
2017-10-29T05:10:14.541Z,10.10
2017-10-29T05:13:24.417Z,10.40
2017-10-29T05:16:34.394Z,10.50
2017-10-29T05:19:45.048Z,10.60
2017-10-29T05:22:55.715Z,10.60
2017-10-29T05:26:05.131Z,10.50
2017-10-29T05:29:15.517Z,10.50
2017-10-29T05:32:25.502Z,10.50
2017-10-29T05:35:35.552Z,10.50
2017-10-29T05:38:45.725Z,10.50
2017-10-29T05:41:55.806Z,10.50
2017-10-29T05:45:05.529Z,10.50
2017-10-29T05:48:16.038Z,10.40
2017-10-29T05:51:25.788Z,10.40
2017-10-29T05:54:36.051Z,10.30
2017-10-29T05:57:46.156Z,10.10
2017-10-29T06:00:56.242Z,10.10
2017-10-29T06:04:05.883Z,10.10
2017-10-29T06:07:15.865Z,9.90
2017-10-29T06:10:26.526Z,9.90
2017-10-29T06:13:36.850Z,9.80
2017-10-29T06:16:47.479Z,8.80
2017-10-29T06:19:57.898Z,8.80
2017-10-29T06:23:08.529Z,8.50
2017-10-29T06:26:18.688Z,8.20
2017-10-29T06:29:28.741Z,7.90
2017-10-29T06:32:38.662Z,7.90
2017-10-29T06:35:48.838Z,7.90
2017-10-29T06:38:58.861Z,7.90
2017-10-29T06:42:08.634Z,7.90
2017-10-29T06:45:18.761Z,7.90
2017-10-29T06:48:29.965Z,8.00
2017-10-29T06:51:40.382Z,7.90
2017-10-29T06:54:50.898Z,8.00
2017-10-29T06:58:01.789Z,7.90
2017-10-29T07:01:14.111Z,8.00
2017-10-29T07:04:24.707Z,7.90
2017-10-29T07:07:34.685Z,7.90
2017-10-29T07:10:45.856Z,7.90
2017-10-29T07:13:56.672Z,7.90
2017-10-29T07:17:07.692Z,7.80
2017-10-29T07:20:17.959Z,7.80
2017-10-29T07:23:29.238Z,7.70
2017-10-29T07:26:40.244Z,7.70
2017-10-29T07:29:51.422Z,7.70
2017-10-29T07:33:02.300Z,7.80
2017-10-29T07:36:13.706Z,7.80
2017-10-29T07:39:24.094Z,7.80
2017-10-29T07:42:34.921Z,7.90
2017-10-29T07:45:46.213Z,7.90
2017-10-29T07:48:56.435Z,7.90
2017-10-29T07:52:07.214Z,8.00
2017-10-29T07:55:17.430Z,8.00
2017-10-29T07:58:28.776Z,8.00
2017-10-29T08:01:39.393Z,8.00
2017-10-29T08:04:49.900Z,8.00
2017-10-29T08:08:00.992Z,7.90
2017-10-29T08:11:12.068Z,7.90
2017-10-29T08:14:21.974Z,7.90
2017-10-29T08:17:33.736Z,7.90
2017-10-29T08:20:44.577Z,7.90
2017-10-29T08:23:56.160Z,7.80
2017-10-29T08:27:06.407Z,7.80
2017-10-29T08:30:17.871Z,7.80
2017-10-29T08:33:29.015Z,7.80
2017-10-29T08:36:39.285Z,7.90
2017-10-29T08:39:50.877Z,8.00
2017-10-29T08:43:01.073Z,8.00
2017-10-29T08:46:10.828Z,8.00
2017-10-29T08:49:21.570Z,8.00
2017-10-29T08:52:33.063Z,7.90
2017-10-29T08:55:43.818Z,7.90
2017-10-29T08:58:53.862Z,8.00
2017-10-29T09:02:04.892Z,8.00
2017-10-29T09:05:15.109Z,7.90
2017-10-29T09:08:24.947Z,8.00
2017-10-29T09:11:35.574Z,8.00
2017-10-29T09:14:45.860Z,8.00
2017-10-29T09:17:57.896Z,8.00
2017-10-29T09:21:09.996Z,8.00
2017-10-29T09:24:20.492Z,8.10
2017-10-29T09:27:30.951Z,8.10
2017-10-29T09:30:41.340Z,8.20
2017-10-29T09:33:51.818Z,8.20
2017-10-29T09:37:02.321Z,8.30
2017-10-29T09:40:13.186Z,8.30
2017-10-29T09:43:23.671Z,8.30
2017-10-29T09:46:34.325Z,8.30
2017-10-29T09:49:44.360Z,8.00
2017-10-29T09:52:54.924Z,7.80
2017-10-29T09:56:06.273Z,7.10
2017-10-29T09:59:17.537Z,6.70
2017-10-29T10:02:28.028Z,6.70
2017-10-29T10:05:38.427Z,6.50
2017-10-29T10:08:48.548Z,6.30
2017-10-29T10:11:59.857Z,6.50
2017-10-29T10:15:10.189Z,6.50
2017-10-29T10:18:22.612Z,6.60
2017-10-29T10:21:33.852Z,6.70
2017-10-29T10:24:44.703Z,7.00
2017-10-29T10:27:55.827Z,7.10
2017-10-29T10:31:06.651Z,7.10
2017-10-29T10:34:16.705Z,7.30
2017-10-29T10:37:27.392Z,7.40
2017-10-29T10:40:38.138Z,7.50
2017-10-29T10:43:48.220Z,7.50
2017-10-29T10:46:59.080Z,7.50
2017-10-29T10:50:10.400Z,7.70
2017-10-29T10:53:21.252Z,7.60
2017-10-29T10:56:33.607Z,7.70
2017-10-29T10:59:44.355Z,8.00
2017-10-29T11:02:55.287Z,8.00
2017-10-29T11:06:05.334Z,8.00
2017-10-29T11:09:16.599Z,8.10
2017-10-29T11:12:28.139Z,7.90
2017-10-29T11:15:39.214Z,7.90
2017-10-29T11:18:49.775Z,7.90
2017-10-29T11:21:59.941Z,7.80
2017-10-29T11:25:10.440Z,7.80
2017-10-29T11:28:20.906Z,7.90
2017-10-29T11:31:32.567Z,8.00
2017-10-29T11:34:42.835Z,8.00
2017-10-29T11:37:53.556Z,8.00
2017-10-29T11:41:03.870Z,8.00
2017-10-29T11:44:14.104Z,7.90
2017-10-29T11:47:25.395Z,7.80
2017-10-29T11:50:36.304Z,7.70
2017-10-29T11:53:47.585Z,7.70
2017-10-29T11:56:58.353Z,7.70
2017-10-29T12:00:08.622Z,7.70
2017-10-29T12:03:18.946Z,7.60
2017-10-29T12:06:28.906Z,7.70
2017-10-29T12:09:38.691Z,7.80
2017-10-29T12:12:49.612Z,7.80
2017-10-29T12:16:00.091Z,7.80
2017-10-29T12:19:10.486Z,7.80
2017-10-29T12:22:20.591Z,7.80
2017-10-29T12:25:31.012Z,7.80
2017-10-29T12:28:41.397Z,7.80
2017-10-29T12:31:51.953Z,7.90
2017-10-29T12:35:03.245Z,8.00
2017-10-29T12:38:13.692Z,8.00
2017-10-29T12:41:23.675Z,7.90
2017-10-29T12:44:33.668Z,7.90
2017-10-29T12:47:43.798Z,7.90
2017-10-29T12:50:54.482Z,7.90
2017-10-29T12:54:05.116Z,7.90
2017-10-29T12:57:15.208Z,7.90
2017-10-29T13:00:25.474Z,7.90
2017-10-29T13:03:36.503Z,7.90
2017-10-29T13:06:46.834Z,7.90
2017-10-29T13:09:57.737Z,7.80
2017-10-29T13:13:08.159Z,7.80
2017-10-29T13:16:18.115Z,7.80
2017-10-29T13:19:27.922Z,7.80
2017-10-29T13:22:38.496Z,7.80
2017-10-29T13:25:48.963Z,7.80
2017-10-29T13:28:59.597Z,7.80
2017-10-29T13:32:09.541Z,7.80
2017-10-29T13:35:19.598Z,7.90
2017-10-29T13:38:29.478Z,7.90
2017-10-29T13:41:40.418Z,7.90
2017-10-29T13:44:50.965Z,7.90
2017-10-29T13:48:01.098Z,8.00
2017-10-29T13:51:11.139Z,8.00
2017-10-29T13:54:21.394Z,7.90
2017-10-29T13:57:31.272Z,7.90
2017-10-29T14:00:41.314Z,7.80
2017-10-29T14:03:52.085Z,7.70
2017-10-29T14:07:02.483Z,7.70
2017-10-29T14:10:12.488Z,7.60
2017-10-29T14:13:23.095Z,7.60
2017-10-29T14:16:33.751Z,7.70
2017-10-29T14:19:44.518Z,7.70
2017-10-29T14:22:54.571Z,7.80
2017-10-29T14:26:04.778Z,7.80
2017-10-29T14:29:15.154Z,7.80
2017-10-29T14:32:25.735Z,7.80
2017-10-29T14:35:35.521Z,7.70
2017-10-29T14:38:46.206Z,7.70
2017-10-29T14:41:57.235Z,7.60
2017-10-29T14:45:07.547Z,7.60
2017-10-29T14:48:18.112Z,7.60
2017-10-29T14:51:28.620Z,7.50
2017-10-29T14:54:39.271Z,7.50
2017-10-29T14:57:49.290Z,7.50
2017-10-29T15:00:59.434Z,7.40
2017-10-29T15:04:09.640Z,7.30
2017-10-29T15:07:20.087Z,7.30
2017-10-29T15:10:30.100Z,7.20
2017-10-29T15:13:40.862Z,7.10
2017-10-29T15:16:50.935Z,7.10
2017-10-29T15:20:01.270Z,7.10
2017-10-29T15:23:11.773Z,7.00
2017-10-29T15:26:22.825Z,7.00
2017-10-29T15:29:33.691Z,7.00
2017-10-29T15:32:44.388Z,6.90
2017-10-29T15:35:54.259Z,6.90
2017-10-29T15:39:03.593Z,6.80
2017-10-29T15:42:14.997Z,6.90
2017-10-29T15:45:25.161Z,6.80
2017-10-29T15:48:35.287Z,6.80
2017-10-29T15:51:45.841Z,6.80
2017-10-29T15:54:56.265Z,6.80
2017-10-29T15:58:07.369Z,6.70
2017-10-29T16:01:17.195Z,6.70
2017-10-29T16:04:27.332Z,6.70
2017-10-29T16:07:37.468Z,6.60
2017-10-29T16:10:47.216Z,6.60
2017-10-29T16:13:57.485Z,6.60
2017-10-29T16:17:08.053Z,6.60
2017-10-29T16:20:18.260Z,6.60
2017-10-29T16:23:28.696Z,6.60
2017-10-29T16:26:39.405Z,6.60
2017-10-29T16:29:49.357Z,6.60
2017-10-29T16:32:59.586Z,6.60
2017-10-29T16:36:09.970Z,6.60
2017-10-29T16:39:20.318Z,6.60
2017-10-29T16:42:31.287Z,6.60
2017-10-29T16:45:46.996Z,6.60
2017-10-29T16:48:57.582Z,6.60
2017-10-29T16:52:08.795Z,5.40
2017-10-29T16:55:19.415Z,4.90
2017-10-29T16:58:29.761Z,4.80
2017-10-29T17:01:40.221Z,4.90
2017-10-29T17:04:50.712Z,5.00
2017-10-29T17:08:01.253Z,5.20
2017-10-29T17:11:11.010Z,5.30
2017-10-29T17:14:20.742Z,5.30
2017-10-29T17:17:31.101Z,5.40
2017-10-29T17:20:41.789Z,5.50
2017-10-29T17:23:51.875Z,5.60
2017-10-29T17:27:02.438Z,5.60
2017-10-29T17:30:13.015Z,5.60
2017-10-29T17:33:22.875Z,5.60
2017-10-29T17:36:33.264Z,5.60
2017-10-29T17:39:43.977Z,5.50
2017-10-29T17:42:55.092Z,5.50
2017-10-29T17:46:05.766Z,5.50
2017-10-29T17:49:15.944Z,5.50
2017-10-29T17:52:25.739Z,5.40
2017-10-29T17:55:40.006Z,5.30
2017-10-29T17:58:50.172Z,5.30
2017-10-29T18:02:00.880Z,5.30
2017-10-29T18:05:11.351Z,5.30
2017-10-29T18:08:21.467Z,5.30
2017-10-29T18:11:31.741Z,5.30
2017-10-29T18:14:42.858Z,5.30
2017-10-29T18:17:52.720Z,5.30
2017-10-29T18:21:04.043Z,5.30
2017-10-29T18:24:13.935Z,5.30
2017-10-29T18:27:24.242Z,5.30
2017-10-29T18:30:34.783Z,5.40
2017-10-29T18:33:45.206Z,5.40
2017-10-29T18:36:55.430Z,5.40
2017-10-29T18:40:05.724Z,5.40
2017-10-29T18:43:17.646Z,5.50
2017-10-29T18:46:28.305Z,5.40
2017-10-29T18:49:39.091Z,5.50
2017-10-29T18:52:49.122Z,5.40
2017-10-29T18:55:59.794Z,5.40
2017-10-29T18:59:10.624Z,5.30
2017-10-29T19:02:20.632Z,5.20
2017-10-29T19:05:30.808Z,5.20
2017-10-29T19:08:40.970Z,5.00
2017-10-29T19:11:51.555Z,5.10
2017-10-29T19:15:02.141Z,5.10
2017-10-29T19:18:12.181Z,5.00
2017-10-29T19:21:23.623Z,5.00
2017-10-29T19:24:33.753Z,5.00
2017-10-29T19:27:44.339Z,5.00
2017-10-29T19:30:54.582Z,5.10
2017-10-29T19:34:05.091Z,5.10
2017-10-29T19:37:15.669Z,5.10
2017-10-29T19:40:26.407Z,5.10
2017-10-29T19:43:36.269Z,5.10
2017-10-29T19:46:47.107Z,5.20
2017-10-29T19:49:57.233Z,5.20
2017-10-29T19:53:06.640Z,5.20
2017-10-29T19:56:17.230Z,5.20
2017-10-29T19:59:27.918Z,5.20
2017-10-29T20:02:37.946Z,5.20
2017-10-29T20:05:48.173Z,5.20
2017-10-29T20:08:58.342Z,5.20
2017-10-29T20:12:09.101Z,5.20
2017-10-29T20:15:19.450Z,5.20
2017-10-29T20:18:30.158Z,5.20
2017-10-29T20:21:40.192Z,5.30
2017-10-29T20:24:50.402Z,5.30
2017-10-29T20:28:00.375Z,5.20
2017-10-29T20:31:12.091Z,5.30
2017-10-29T20:34:22.799Z,5.30
2017-10-29T20:37:33.057Z,5.30
2017-10-29T20:40:43.634Z,5.30
2017-10-29T20:43:54.202Z,5.20
2017-10-29T20:47:04.606Z,5.20
2017-10-29T20:50:15.175Z,5.20
2017-10-29T20:53:25.383Z,5.20
2017-10-29T20:56:36.624Z,5.20
2017-10-29T20:59:46.845Z,5.10
2017-10-29T21:02:56.795Z,5.20
2017-10-29T21:06:06.881Z,5.10
2017-10-29T21:09:16.967Z,5.20
2017-10-29T21:12:26.781Z,5.20
2017-10-29T21:15:37.126Z,5.10
2017-10-29T21:18:47.134Z,5.10
2017-10-29T21:21:56.870Z,5.10
2017-10-29T21:25:07.307Z,5.10
2017-10-29T21:28:18.030Z,5.10
2017-10-29T21:31:28.492Z,5.10
2017-10-29T21:34:39.326Z,5.10
2017-10-29T21:37:48.760Z,5.10
2017-10-29T21:40:58.593Z,5.10
2017-10-29T21:44:09.309Z,5.10
2017-10-29T21:47:19.418Z,5.20
2017-10-29T21:50:29.488Z,5.20
2017-10-29T21:53:39.244Z,5.20
2017-10-29T21:56:49.462Z,5.20
2017-10-29T21:59:59.922Z,5.20
2017-10-29T22:03:10.502Z,5.20
2017-10-29T22:06:20.353Z,5.20
2017-10-29T22:09:31.423Z,5.20
2017-10-29T22:12:41.667Z,5.10
2017-10-29T22:15:51.562Z,5.20
2017-10-29T22:19:01.299Z,5.20
2017-10-29T22:22:11.380Z,5.20
2017-10-29T22:25:21.339Z,5.20
2017-10-29T22:28:31.984Z,5.10
2017-10-29T22:31:41.945Z,5.10
2017-10-29T22:34:51.906Z,5.10
2017-10-29T22:38:02.119Z,5.10
2017-10-29T22:41:12.012Z,5.10
2017-10-29T22:44:22.785Z,5.20
2017-10-29T22:47:33.214Z,5.10
2017-10-29T22:50:43.960Z,5.20
2017-10-29T22:53:54.085Z,5.10
2017-10-29T22:57:04.399Z,5.20
2017-10-29T23:00:14.265Z,5.20
2017-10-29T23:03:24.900Z,5.20
2017-10-29T23:06:46.502Z,5.20
2017-10-29T23:09:56.488Z,5.20
2017-10-29T23:13:07.373Z,5.20
2017-10-29T23:16:17.498Z,5.10
2017-10-29T23:19:28.658Z,5.10
2017-10-29T23:22:38.957Z,5.10
2017-10-29T23:25:49.192Z,5.10
2017-10-29T23:28:59.170Z,5.10
2017-10-29T23:32:10.007Z,5.10
2017-10-29T23:35:20.189Z,5.10
2017-10-29T23:38:29.970Z,5.10
2017-10-29T23:41:40.952Z,5.00
2017-10-29T23:44:52.281Z,5.00
2017-10-29T23:48:02.567Z,5.00
2017-10-29T23:51:12.765Z,5.00
2017-10-29T23:54:22.886Z,5.00
2017-10-29T23:57:33.553Z,5.00
